sensor_id;sensor_type;location;lat;lon;timestamp;P1;durP1;ratioP1;P2;durP2;ratioP2
78985;SDS011;68384;55.750;48.746;2023-04-25T00:01:02;7.55;;;3.40;;
78985;SDS011;68384;55.750;48.746;2023-04-25T00:02:06;6.88;;;2.97;;
78985;SDS011;68384;55.750;48.746;2023-04-25T00:04:14;4.53;;;3.17;;
78985;SDS011;68384;55.750;48.746;2023-04-25T00:05:18;5.82;;;2.70;;
78985;SDS011;68384;55.750;48.746;2023-04-25T00:06:24;7.03;;;3.20;;
78985;SDS011;68384;55.750;48.746;2023-04-25T00:07:28;7.68;;;3.20;;
78985;SDS011;68384;55.750;48.746;2023-04-25T00:08:33;6.78;;;4.00;;
78985;SDS011;68384;55.750;48.746;2023-04-25T00:09:35;5.38;;;3.17;;
78985;SDS011;68384;55.750;48.746;2023-04-25T00:10:39;4.00;;;3.30;;
78985;SDS011;68384;55.750;48.746;2023-04-25T00:11:41;6.38;;;3.40;;
78985;SDS011;68384;55.750;48.746;2023-04-25T00:13:49;6.68;;;2.78;;
78985;SDS011;68384;55.750;48.746;2023-04-25T00:14:52;5.28;;;3.10;;
78985;SDS011;68384;55.750;48.746;2023-04-25T00:15:58;5.00;;;3.30;;
78985;SDS011;68384;55.750;48.746;2023-04-25T00:18:06;7.60;;;3.42;;
78985;SDS011;68384;55.750;48.746;2023-04-25T00:19:08;8.68;;;3.33;;
78985;SDS011;68384;55.750;48.746;2023-04-25T00:20:12;4.35;;;3.25;;
78985;SDS011;68384;55.750;48.746;2023-04-25T00:21:15;6.53;;;3.90;;
78985;SDS011;68384;55.750;48.746;2023-04-25T00:22:20;6.38;;;3.63;;
78985;SDS011;68384;55.750;48.746;2023-04-25T00:23:24;7.57;;;3.03;;
78985;SDS011;68384;55.750;48.746;2023-04-25T00:24:28;9.02;;;3.63;;
78985;SDS011;68384;55.750;48.746;2023-04-25T00:25:31;9.88;;;3.67;;
78985;SDS011;68384;55.750;48.746;2023-04-25T00:26:34;6.88;;;3.05;;
78985;SDS011;68384;55.750;48.746;2023-04-25T00:27:38;8.82;;;3.42;;
78985;SDS011;68384;55.750;48.746;2023-04-25T00:28:41;9.20;;;3.30;;
78985;SDS011;68384;55.750;48.746;2023-04-25T00:29:44;4.68;;;3.13;;
78985;SDS011;68384;55.750;48.746;2023-04-25T00:30:47;4.68;;;3.35;;
78985;SDS011;68384;55.750;48.746;2023-04-25T00:31:51;7.75;;;3.85;;
78985;SDS011;68384;55.750;48.746;2023-04-25T00:32:53;10.82;;;3.67;;
78985;SDS011;68384;55.750;48.746;2023-04-25T00:34:59;6.65;;;3.72;;
78985;SDS011;68384;55.750;48.746;2023-04-25T00:36:04;6.22;;;3.40;;
78985;SDS011;68384;55.750;48.746;2023-04-25T00:37:08;7.53;;;3.80;;
78985;SDS011;68384;55.750;48.746;2023-04-25T00:38:11;5.03;;;3.60;;
78985;SDS011;68384;55.750;48.746;2023-04-25T00:39:14;5.40;;;3.33;;
78985;SDS011;68384;55.750;48.746;2023-04-25T00:40:18;6.22;;;3.38;;
78985;SDS011;68384;55.750;48.746;2023-04-25T00:41:22;6.35;;;3.28;;
78985;SDS011;68384;55.750;48.746;2023-04-25T00:42:27;9.85;;;4.45;;
78985;SDS011;68384;55.750;48.746;2023-04-25T00:43:32;6.32;;;3.60;;
78985;SDS011;68384;55.750;48.746;2023-04-25T00:44:35;7.55;;;3.58;;
78985;SDS011;68384;55.750;48.746;2023-04-25T00:45:40;10.27;;;3.80;;
78985;SDS011;68384;55.750;48.746;2023-04-25T00:46:44;7.68;;;3.50;;
78985;SDS011;68384;55.750;48.746;2023-04-25T00:47:50;9.20;;;3.75;;
78985;SDS011;68384;55.750;48.746;2023-04-25T00:48:53;8.07;;;3.50;;
78985;SDS011;68384;55.750;48.746;2023-04-25T00:49:56;7.82;;;4.10;;
78985;SDS011;68384;55.750;48.746;2023-04-25T00:50:59;5.45;;;3.53;;
78985;SDS011;68384;55.750;48.746;2023-04-25T00:53:06;4.97;;;3.42;;
78985;SDS011;68384;55.750;48.746;2023-04-25T00:54:12;7.18;;;3.78;;
78985;SDS011;68384;55.750;48.746;2023-04-25T00:55:15;6.97;;;3.92;;
78985;SDS011;68384;55.750;48.746;2023-04-25T00:56:21;8.57;;;3.95;;
78985;SDS011;68384;55.750;48.746;2023-04-25T00:57:24;5.13;;;3.53;;
78985;SDS011;68384;55.750;48.746;2023-04-25T00:58:28;6.03;;;3.40;;
78985;SDS011;68384;55.750;48.746;2023-04-25T00:59:31;5.85;;;4.07;;
78985;SDS011;68384;55.750;48.746;2023-04-25T01:00:35;8.23;;;3.72;;
78985;SDS011;68384;55.750;48.746;2023-04-25T01:01:38;6.97;;;3.60;;
78985;SDS011;68384;55.750;48.746;2023-04-25T01:02:43;5.90;;;4.05;;
78985;SDS011;68384;55.750;48.746;2023-04-25T01:03:47;7.07;;;4.38;;
78985;SDS011;68384;55.750;48.746;2023-04-25T01:04:53;9.20;;;4.00;;
78985;SDS011;68384;55.750;48.746;2023-04-25T01:05:55;7.55;;;4.10;;
78985;SDS011;68384;55.750;48.746;2023-04-25T01:09:05;8.98;;;4.38;;
78985;SDS011;68384;55.750;48.746;2023-04-25T01:10:08;6.85;;;4.50;;
78985;SDS011;68384;55.750;48.746;2023-04-25T01:11:12;12.45;;;4.78;;
78985;SDS011;68384;55.750;48.746;2023-04-25T01:12:16;8.07;;;4.63;;
78985;SDS011;68384;55.750;48.746;2023-04-25T01:13:20;9.10;;;4.75;;
78985;SDS011;68384;55.750;48.746;2023-04-25T01:14:23;7.05;;;4.55;;
78985;SDS011;68384;55.750;48.746;2023-04-25T01:16:29;8.02;;;4.50;;
78985;SDS011;68384;55.750;48.746;2023-04-25T01:17:33;12.68;;;4.75;;
78985;SDS011;68384;55.750;48.746;2023-04-25T01:18:37;10.90;;;4.63;;
78985;SDS011;68384;55.750;48.746;2023-04-25T01:19:42;9.90;;;4.03;;
78985;SDS011;68384;55.750;48.746;2023-04-25T01:20:44;7.25;;;4.68;;
78985;SDS011;68384;55.750;48.746;2023-04-25T01:21:51;12.23;;;4.95;;
78985;SDS011;68384;55.750;48.746;2023-04-25T01:22:53;8.23;;;4.15;;
78985;SDS011;68384;55.750;48.746;2023-04-25T01:23:58;8.15;;;4.60;;
78985;SDS011;68384;55.750;48.746;2023-04-25T01:25:01;7.65;;;4.32;;
78985;SDS011;68384;55.750;48.746;2023-04-25T01:26:06;14.38;;;4.45;;
78985;SDS011;68384;55.750;48.746;2023-04-25T01:27:10;5.70;;;4.20;;
78985;SDS011;68384;55.750;48.746;2023-04-25T01:28:14;5.85;;;3.90;;
78985;SDS011;68384;55.750;48.746;2023-04-25T01:29:18;7.13;;;4.10;;
78985;SDS011;68384;55.750;48.746;2023-04-25T01:30:22;9.68;;;4.35;;
78985;SDS011;68384;55.750;48.746;2023-04-25T01:31:24;6.97;;;4.10;;
78985;SDS011;68384;55.750;48.746;2023-04-25T01:32:29;5.30;;;4.10;;
78985;SDS011;68384;55.750;48.746;2023-04-25T01:33:40;7.60;;;4.35;;
78985;SDS011;68384;55.750;48.746;2023-04-25T01:34:44;8.82;;;4.30;;
78985;SDS011;68384;55.750;48.746;2023-04-25T01:35:46;9.88;;;5.25;;
78985;SDS011;68384;55.750;48.746;2023-04-25T01:36:51;6.28;;;4.75;;
78985;SDS011;68384;55.750;48.746;2023-04-25T01:37:55;7.25;;;4.45;;
78985;SDS011;68384;55.750;48.746;2023-04-25T01:38:59;12.88;;;4.95;;
78985;SDS011;68384;55.750;48.746;2023-04-25T01:40:02;8.27;;;4.47;;
78985;SDS011;68384;55.750;48.746;2023-04-25T01:41:07;7.05;;;4.82;;
78985;SDS011;68384;55.750;48.746;2023-04-25T01:42:10;9.38;;;5.00;;
78985;SDS011;68384;55.750;48.746;2023-04-25T01:44:16;8.10;;;4.68;;
78985;SDS011;68384;55.750;48.746;2023-04-25T01:45:20;6.40;;;4.55;;
78985;SDS011;68384;55.750;48.746;2023-04-25T01:46:23;9.80;;;4.53;;
78985;SDS011;68384;55.750;48.746;2023-04-25T01:47:26;9.32;;;4.85;;
78985;SDS011;68384;55.750;48.746;2023-04-25T01:48:32;7.03;;;4.32;;
78985;SDS011;68384;55.750;48.746;2023-04-25T01:49:36;8.68;;;4.38;;
78985;SDS011;68384;55.750;48.746;2023-04-25T01:50:39;10.63;;;4.45;;
78985;SDS011;68384;55.750;48.746;2023-04-25T01:51:43;7.13;;;4.25;;
78985;SDS011;68384;55.750;48.746;2023-04-25T01:52:47;7.45;;;4.68;;
78985;SDS011;68384;55.750;48.746;2023-04-25T01:53:51;9.57;;;4.15;;
78985;SDS011;68384;55.750;48.746;2023-04-25T01:54:55;8.07;;;4.35;;
78985;SDS011;68384;55.750;48.746;2023-04-25T01:56:00;8.43;;;4.93;;
78985;SDS011;68384;55.750;48.746;2023-04-25T01:57:03;7.38;;;4.38;;
78985;SDS011;68384;55.750;48.746;2023-04-25T01:58:06;7.95;;;4.85;;
78985;SDS011;68384;55.750;48.746;2023-04-25T01:59:11;11.68;;;5.18;;
78985;SDS011;68384;55.750;48.746;2023-04-25T02:01:20;8.93;;;4.20;;
78985;SDS011;68384;55.750;48.746;2023-04-25T02:02:24;9.65;;;4.65;;
78985;SDS011;68384;55.750;48.746;2023-04-25T02:03:27;8.77;;;4.03;;
78985;SDS011;68384;55.750;48.746;2023-04-25T02:04:30;9.18;;;4.28;;
78985;SDS011;68384;55.750;48.746;2023-04-25T02:05:34;4.68;;;3.83;;
78985;SDS011;68384;55.750;48.746;2023-04-25T02:06:38;8.75;;;4.00;;
78985;SDS011;68384;55.750;48.746;2023-04-25T02:07:41;11.45;;;4.55;;
78985;SDS011;68384;55.750;48.746;2023-04-25T02:09:48;6.45;;;3.72;;
78985;SDS011;68384;55.750;48.746;2023-04-25T02:10:52;6.18;;;3.50;;
78985;SDS011;68384;55.750;48.746;2023-04-25T02:11:55;18.13;;;3.95;;
78985;SDS011;68384;55.750;48.746;2023-04-25T02:12:59;6.22;;;3.80;;
78985;SDS011;68384;55.750;48.746;2023-04-25T02:14:01;9.60;;;3.70;;
78985;SDS011;68384;55.750;48.746;2023-04-25T02:16:08;5.20;;;3.38;;
78985;SDS011;68384;55.750;48.746;2023-04-25T02:17:11;7.70;;;4.00;;
78985;SDS011;68384;55.750;48.746;2023-04-25T02:18:15;7.82;;;4.05;;
78985;SDS011;68384;55.750;48.746;2023-04-25T02:19:19;8.27;;;3.70;;
78985;SDS011;68384;55.750;48.746;2023-04-25T02:20:22;10.02;;;3.75;;
78985;SDS011;68384;55.750;48.746;2023-04-25T02:21:26;7.78;;;3.72;;
78985;SDS011;68384;55.750;48.746;2023-04-25T02:22:29;6.43;;;3.97;;
78985;SDS011;68384;55.750;48.746;2023-04-25T02:23:32;6.68;;;3.42;;
78985;SDS011;68384;55.750;48.746;2023-04-25T02:24:37;7.03;;;3.63;;
78985;SDS011;68384;55.750;48.746;2023-04-25T02:25:40;7.50;;;3.70;;
78985;SDS011;68384;55.750;48.746;2023-04-25T02:26:43;6.97;;;3.40;;
78985;SDS011;68384;55.750;48.746;2023-04-25T02:27:48;6.03;;;3.65;;
78985;SDS011;68384;55.750;48.746;2023-04-25T02:28:51;6.68;;;3.40;;
78985;SDS011;68384;55.750;48.746;2023-04-25T02:29:54;6.47;;;3.30;;
78985;SDS011;68384;55.750;48.746;2023-04-25T02:30:57;8.80;;;3.72;;
78985;SDS011;68384;55.750;48.746;2023-04-25T02:34:06;6.30;;;3.38;;
78985;SDS011;68384;55.750;48.746;2023-04-25T02:35:09;5.55;;;3.33;;
78985;SDS011;68384;55.750;48.746;2023-04-25T02:36:12;5.20;;;3.70;;
78985;SDS011;68384;55.750;48.746;2023-04-25T02:37:15;9.32;;;3.90;;
78985;SDS011;68384;55.750;48.746;2023-04-25T02:38:19;8.35;;;3.83;;
78985;SDS011;68384;55.750;48.746;2023-04-25T02:39:22;7.75;;;3.67;;
78985;SDS011;68384;55.750;48.746;2023-04-25T02:40:28;5.35;;;3.40;;
78985;SDS011;68384;55.750;48.746;2023-04-25T02:41:32;4.90;;;3.25;;
78985;SDS011;68384;55.750;48.746;2023-04-25T02:42:34;6.57;;;3.80;;
78985;SDS011;68384;55.750;48.746;2023-04-25T02:43:38;7.65;;;3.67;;
78985;SDS011;68384;55.750;48.746;2023-04-25T02:44:41;7.95;;;3.30;;
78985;SDS011;68384;55.750;48.746;2023-04-25T02:45:44;5.82;;;3.35;;
78985;SDS011;68384;55.750;48.746;2023-04-25T02:46:47;15.35;;;4.32;;
78985;SDS011;68384;55.750;48.746;2023-04-25T02:47:51;15.40;;;4.18;;
78985;SDS011;68384;55.750;48.746;2023-04-25T02:48:53;24.83;;;5.30;;
78985;SDS011;68384;55.750;48.746;2023-04-25T02:49:57;13.40;;;3.85;;
78985;SDS011;68384;55.750;48.746;2023-04-25T02:50:59;16.05;;;4.75;;
78985;SDS011;68384;55.750;48.746;2023-04-25T02:53:05;8.27;;;3.60;;
78985;SDS011;68384;55.750;48.746;2023-04-25T02:54:09;12.32;;;3.30;;
78985;SDS011;68384;55.750;48.746;2023-04-25T02:55:12;6.95;;;3.38;;
78985;SDS011;68384;55.750;48.746;2023-04-25T02:56:17;12.13;;;3.50;;
78985;SDS011;68384;55.750;48.746;2023-04-25T02:57:20;9.02;;;3.90;;
78985;SDS011;68384;55.750;48.746;2023-04-25T02:58:24;11.68;;;3.60;;
78985;SDS011;68384;55.750;48.746;2023-04-25T02:59:26;12.48;;;3.67;;
78985;SDS011;68384;55.750;48.746;2023-04-25T03:00:30;8.18;;;3.47;;
78985;SDS011;68384;55.750;48.746;2023-04-25T03:01:34;8.38;;;3.38;;
78985;SDS011;68384;55.750;48.746;2023-04-25T03:02:37;6.90;;;3.15;;
78985;SDS011;68384;55.750;48.746;2023-04-25T03:03:40;7.40;;;3.83;;
78985;SDS011;68384;55.750;48.746;2023-04-25T03:04:43;6.90;;;3.25;;
78985;SDS011;68384;55.750;48.746;2023-04-25T03:05:48;5.80;;;3.05;;
78985;SDS011;68384;55.750;48.746;2023-04-25T03:06:50;6.40;;;3.40;;
78985;SDS011;68384;55.750;48.746;2023-04-25T03:07:54;5.70;;;3.25;;
78985;SDS011;68384;55.750;48.746;2023-04-25T03:08:57;6.45;;;3.10;;
78985;SDS011;68384;55.750;48.746;2023-04-25T03:11:03;7.95;;;3.10;;
78985;SDS011;68384;55.750;48.746;2023-04-25T03:12:08;5.35;;;3.38;;
78985;SDS011;68384;55.750;48.746;2023-04-25T03:13:12;5.00;;;3.40;;
78985;SDS011;68384;55.750;48.746;2023-04-25T03:16:21;6.88;;;3.30;;
78985;SDS011;68384;55.750;48.746;2023-04-25T03:17:24;3.88;;;3.00;;
78985;SDS011;68384;55.750;48.746;2023-04-25T03:18:28;11.00;;;3.95;;
78985;SDS011;68384;55.750;48.746;2023-04-25T03:19:30;8.25;;;3.38;;
78985;SDS011;68384;55.750;48.746;2023-04-25T03:21:36;11.60;;;3.70;;
78985;SDS011;68384;55.750;48.746;2023-04-25T03:22:40;5.47;;;3.22;;
78985;SDS011;68384;55.750;48.746;2023-04-25T03:23:43;6.15;;;3.40;;
78985;SDS011;68384;55.750;48.746;2023-04-25T03:24:46;9.10;;;3.53;;
78985;SDS011;68384;55.750;48.746;2023-04-25T03:25:49;7.55;;;3.55;;
78985;SDS011;68384;55.750;48.746;2023-04-25T03:29:00;5.80;;;3.00;;
78985;SDS011;68384;55.750;48.746;2023-04-25T03:30:02;8.60;;;3.60;;
78985;SDS011;68384;55.750;48.746;2023-04-25T03:31:07;7.38;;;3.33;;
78985;SDS011;68384;55.750;48.746;2023-04-25T03:32:09;5.72;;;2.90;;
78985;SDS011;68384;55.750;48.746;2023-04-25T03:33:13;8.10;;;3.13;;
78985;SDS011;68384;55.750;48.746;2023-04-25T03:36:25;4.85;;;3.05;;
78985;SDS011;68384;55.750;48.746;2023-04-25T03:37:29;5.35;;;2.90;;
78985;SDS011;68384;55.750;48.746;2023-04-25T03:38:31;4.90;;;3.15;;
78985;SDS011;68384;55.750;48.746;2023-04-25T03:39:35;7.85;;;3.33;;
78985;SDS011;68384;55.750;48.746;2023-04-25T03:40:37;6.47;;;3.70;;
78985;SDS011;68384;55.750;48.746;2023-04-25T03:41:41;6.35;;;3.10;;
78985;SDS011;68384;55.750;48.746;2023-04-25T03:42:43;6.65;;;3.22;;
78985;SDS011;68384;55.750;48.746;2023-04-25T03:43:49;6.38;;;3.22;;
78985;SDS011;68384;55.750;48.746;2023-04-25T03:44:52;7.68;;;3.00;;
78985;SDS011;68384;55.750;48.746;2023-04-25T03:45:55;5.72;;;3.30;;
78985;SDS011;68384;55.750;48.746;2023-04-25T03:46:58;9.35;;;3.22;;
78985;SDS011;68384;55.750;48.746;2023-04-25T03:48:02;6.78;;;3.20;;
78985;SDS011;68384;55.750;48.746;2023-04-25T03:49:05;7.90;;;3.70;;
78985;SDS011;68384;55.750;48.746;2023-04-25T03:50:09;6.30;;;3.03;;
78985;SDS011;68384;55.750;48.746;2023-04-25T03:51:12;5.93;;;3.42;;
78985;SDS011;68384;55.750;48.746;2023-04-25T03:52:16;8.52;;;3.22;;
78985;SDS011;68384;55.750;48.746;2023-04-25T03:54:22;7.72;;;3.17;;
78985;SDS011;68384;55.750;48.746;2023-04-25T03:55:25;5.95;;;3.38;;
78985;SDS011;68384;55.750;48.746;2023-04-25T03:56:28;5.38;;;2.83;;
78985;SDS011;68384;55.750;48.746;2023-04-25T03:57:31;6.18;;;3.00;;
78985;SDS011;68384;55.750;48.746;2023-04-25T03:58:34;6.03;;;3.33;;
78985;SDS011;68384;55.750;48.746;2023-04-25T04:00:41;5.50;;;3.30;;
78985;SDS011;68384;55.750;48.746;2023-04-25T04:01:45;6.50;;;3.85;;
78985;SDS011;68384;55.750;48.746;2023-04-25T04:02:48;7.90;;;3.35;;
78985;SDS011;68384;55.750;48.746;2023-04-25T04:03:52;6.70;;;3.08;;
78985;SDS011;68384;55.750;48.746;2023-04-25T04:04:55;9.73;;;3.67;;
78985;SDS011;68384;55.750;48.746;2023-04-25T04:06:00;6.47;;;3.08;;
78985;SDS011;68384;55.750;48.746;2023-04-25T04:07:02;6.75;;;3.28;;
78985;SDS011;68384;55.750;48.746;2023-04-25T04:08:06;5.22;;;3.20;;
78985;SDS011;68384;55.750;48.746;2023-04-25T04:09:09;6.10;;;2.90;;
78985;SDS011;68384;55.750;48.746;2023-04-25T04:10:14;5.88;;;2.80;;
78985;SDS011;68384;55.750;48.746;2023-04-25T04:11:16;7.65;;;3.05;;
78985;SDS011;68384;55.750;48.746;2023-04-25T04:12:20;5.13;;;3.03;;
78985;SDS011;68384;55.750;48.746;2023-04-25T04:13:27;7.85;;;3.25;;
78985;SDS011;68384;55.750;48.746;2023-04-25T04:14:31;7.10;;;3.50;;
78985;SDS011;68384;55.750;48.746;2023-04-25T04:15:36;8.43;;;3.08;;
78985;SDS011;68384;55.750;48.746;2023-04-25T04:16:39;8.02;;;2.83;;
78985;SDS011;68384;55.750;48.746;2023-04-25T04:17:42;5.07;;;2.70;;
78985;SDS011;68384;55.750;48.746;2023-04-25T04:18:46;5.35;;;2.88;;
78985;SDS011;68384;55.750;48.746;2023-04-25T04:19:48;6.38;;;3.42;;
78985;SDS011;68384;55.750;48.746;2023-04-25T04:20:52;5.63;;;3.15;;
78985;SDS011;68384;55.750;48.746;2023-04-25T04:21:55;7.43;;;2.90;;
78985;SDS011;68384;55.750;48.746;2023-04-25T04:25:04;6.28;;;3.28;;
78985;SDS011;68384;55.750;48.746;2023-04-25T04:26:07;9.95;;;3.00;;
78985;SDS011;68384;55.750;48.746;2023-04-25T04:27:11;8.48;;;3.10;;
78985;SDS011;68384;55.750;48.746;2023-04-25T04:28:14;7.75;;;3.45;;
78985;SDS011;68384;55.750;48.746;2023-04-25T04:29:18;9.43;;;3.05;;
78985;SDS011;68384;55.750;48.746;2023-04-25T04:30:22;5.38;;;3.25;;
78985;SDS011;68384;55.750;48.746;2023-04-25T04:31:28;10.10;;;3.30;;
78985;SDS011;68384;55.750;48.746;2023-04-25T04:32:31;6.60;;;2.90;;
78985;SDS011;68384;55.750;48.746;2023-04-25T04:33:36;5.80;;;3.30;;
78985;SDS011;68384;55.750;48.746;2023-04-25T04:34:39;6.43;;;3.00;;
78985;SDS011;68384;55.750;48.746;2023-04-25T04:35:43;8.32;;;3.28;;
78985;SDS011;68384;55.750;48.746;2023-04-25T04:36:45;4.35;;;2.85;;
78985;SDS011;68384;55.750;48.746;2023-04-25T04:39:54;6.40;;;3.33;;
78985;SDS011;68384;55.750;48.746;2023-04-25T04:40:57;5.82;;;2.78;;
78985;SDS011;68384;55.750;48.746;2023-04-25T04:42:01;6.93;;;2.85;;
78985;SDS011;68384;55.750;48.746;2023-04-25T04:43:03;10.93;;;3.28;;
78985;SDS011;68384;55.750;48.746;2023-04-25T04:44:07;5.55;;;3.25;;
78985;SDS011;68384;55.750;48.746;2023-04-25T04:46:14;6.50;;;2.78;;
78985;SDS011;68384;55.750;48.746;2023-04-25T04:48:25;5.07;;;3.13;;
78985;SDS011;68384;55.750;48.746;2023-04-25T04:49:28;7.60;;;2.65;;
78985;SDS011;68384;55.750;48.746;2023-04-25T04:50:31;5.70;;;2.80;;
78985;SDS011;68384;55.750;48.746;2023-04-25T04:51:34;6.10;;;2.65;;
78985;SDS011;68384;55.750;48.746;2023-04-25T04:54:44;6.68;;;2.60;;
78985;SDS011;68384;55.750;48.746;2023-04-25T04:55:46;5.55;;;2.70;;
78985;SDS011;68384;55.750;48.746;2023-04-25T04:56:50;7.05;;;2.53;;
78985;SDS011;68384;55.750;48.746;2023-04-25T04:57:54;8.73;;;2.53;;
78985;SDS011;68384;55.750;48.746;2023-04-25T04:59:59;7.00;;;2.83;;
78985;SDS011;68384;55.750;48.746;2023-04-25T05:01:07;6.82;;;2.60;;
78985;SDS011;68384;55.750;48.746;2023-04-25T05:02:09;6.22;;;2.63;;
78985;SDS011;68384;55.750;48.746;2023-04-25T05:03:14;5.97;;;2.60;;
78985;SDS011;68384;55.750;48.746;2023-04-25T05:04:17;12.30;;;3.08;;
78985;SDS011;68384;55.750;48.746;2023-04-25T05:05:21;4.57;;;2.58;;
78985;SDS011;68384;55.750;48.746;2023-04-25T05:06:24;5.55;;;2.75;;
78985;SDS011;68384;55.750;48.746;2023-04-25T05:07:28;11.00;;;3.55;;
78985;SDS011;68384;55.750;48.746;2023-04-25T05:08:30;5.10;;;2.83;;
78985;SDS011;68384;55.750;48.746;2023-04-25T05:10:36;7.07;;;2.50;;
78985;SDS011;68384;55.750;48.746;2023-04-25T05:11:40;5.28;;;2.70;;
78985;SDS011;68384;55.750;48.746;2023-04-25T05:12:42;6.05;;;2.70;;
78985;SDS011;68384;55.750;48.746;2023-04-25T05:13:46;7.38;;;2.88;;
78985;SDS011;68384;55.750;48.746;2023-04-25T05:14:49;7.05;;;2.72;;
78985;SDS011;68384;55.750;48.746;2023-04-25T05:16:55;9.63;;;2.60;;
78985;SDS011;68384;55.750;48.746;2023-04-25T05:18:00;7.53;;;2.90;;
78985;SDS011;68384;55.750;48.746;2023-04-25T05:19:04;6.32;;;2.85;;
78985;SDS011;68384;55.750;48.746;2023-04-25T05:20:08;4.32;;;2.58;;
78985;SDS011;68384;55.750;48.746;2023-04-25T05:21:11;4.90;;;2.63;;
78985;SDS011;68384;55.750;48.746;2023-04-25T05:22:15;6.50;;;2.85;;
78985;SDS011;68384;55.750;48.746;2023-04-25T05:23:18;10.20;;;3.00;;
78985;SDS011;68384;55.750;48.746;2023-04-25T05:24:21;6.75;;;3.45;;
78985;SDS011;68384;55.750;48.746;2023-04-25T05:25:24;4.20;;;2.53;;
78985;SDS011;68384;55.750;48.746;2023-04-25T05:26:28;6.70;;;2.90;;
78985;SDS011;68384;55.750;48.746;2023-04-25T05:27:32;9.13;;;3.15;;
78985;SDS011;68384;55.750;48.746;2023-04-25T05:28:39;7.65;;;2.80;;
78985;SDS011;68384;55.750;48.746;2023-04-25T05:29:43;5.95;;;2.40;;
78985;SDS011;68384;55.750;48.746;2023-04-25T05:30:46;7.55;;;2.80;;
78985;SDS011;68384;55.750;48.746;2023-04-25T05:31:50;4.97;;;2.88;;
78985;SDS011;68384;55.750;48.746;2023-04-25T05:32:54;6.72;;;2.85;;
78985;SDS011;68384;55.750;48.746;2023-04-25T05:33:57;6.80;;;3.47;;
78985;SDS011;68384;55.750;48.746;2023-04-25T05:35:03;4.63;;;2.53;;
78985;SDS011;68384;55.750;48.746;2023-04-25T05:36:08;5.90;;;3.08;;
78985;SDS011;68384;55.750;48.746;2023-04-25T05:37:11;7.32;;;2.88;;
78985;SDS011;68384;55.750;48.746;2023-04-25T05:38:15;6.90;;;3.20;;
78985;SDS011;68384;55.750;48.746;2023-04-25T05:39:18;7.68;;;2.97;;
78985;SDS011;68384;55.750;48.746;2023-04-25T05:41:24;7.90;;;2.90;;
78985;SDS011;68384;55.750;48.746;2023-04-25T05:42:27;6.47;;;2.63;;
78985;SDS011;68384;55.750;48.746;2023-04-25T05:43:31;5.85;;;2.67;;
78985;SDS011;68384;55.750;48.746;2023-04-25T05:44:33;5.45;;;2.85;;
78985;SDS011;68384;55.750;48.746;2023-04-25T05:45:37;6.00;;;2.70;;
78985;SDS011;68384;55.750;48.746;2023-04-25T05:46:40;6.72;;;2.90;;
78985;SDS011;68384;55.750;48.746;2023-04-25T05:48:46;10.35;;;3.00;;
78985;SDS011;68384;55.750;48.746;2023-04-25T05:49:49;6.57;;;2.70;;
78985;SDS011;68384;55.750;48.746;2023-04-25T05:50:53;12.45;;;2.72;;
78985;SDS011;68384;55.750;48.746;2023-04-25T05:51:57;7.05;;;2.92;;
78985;SDS011;68384;55.750;48.746;2023-04-25T05:52:59;6.60;;;2.88;;
78985;SDS011;68384;55.750;48.746;2023-04-25T05:54:03;7.32;;;2.72;;
78985;SDS011;68384;55.750;48.746;2023-04-25T05:55:06;6.53;;;2.72;;
78985;SDS011;68384;55.750;48.746;2023-04-25T05:56:10;8.77;;;2.88;;
78985;SDS011;68384;55.750;48.746;2023-04-25T05:57:19;7.07;;;2.40;;
78985;SDS011;68384;55.750;48.746;2023-04-25T05:58:23;7.68;;;2.42;;
78985;SDS011;68384;55.750;48.746;2023-04-25T05:59:26;6.75;;;2.72;;
78985;SDS011;68384;55.750;48.746;2023-04-25T06:00:30;11.27;;;3.47;;
78985;SDS011;68384;55.750;48.746;2023-04-25T06:01:32;6.78;;;3.65;;
78985;SDS011;68384;55.750;48.746;2023-04-25T06:02:36;6.35;;;3.03;;
78985;SDS011;68384;55.750;48.746;2023-04-25T06:03:39;6.97;;;2.63;;
78985;SDS011;68384;55.750;48.746;2023-04-25T06:04:45;8.15;;;2.95;;
78985;SDS011;68384;55.750;48.746;2023-04-25T06:05:48;7.10;;;3.00;;
78985;SDS011;68384;55.750;48.746;2023-04-25T06:06:54;6.28;;;3.25;;
78985;SDS011;68384;55.750;48.746;2023-04-25T06:07:56;9.13;;;2.50;;
78985;SDS011;68384;55.750;48.746;2023-04-25T06:09:00;8.45;;;2.63;;
78985;SDS011;68384;55.750;48.746;2023-04-25T06:10:03;8.38;;;2.75;;
78985;SDS011;68384;55.750;48.746;2023-04-25T06:11:08;7.95;;;2.72;;
78985;SDS011;68384;55.750;48.746;2023-04-25T06:12:10;5.15;;;2.65;;
78985;SDS011;68384;55.750;48.746;2023-04-25T06:13:14;5.88;;;2.65;;
78985;SDS011;68384;55.750;48.746;2023-04-25T06:14:17;5.43;;;2.63;;
78985;SDS011;68384;55.750;48.746;2023-04-25T06:15:20;5.32;;;2.83;;
78985;SDS011;68384;55.750;48.746;2023-04-25T06:16:29;5.10;;;2.70;;
78985;SDS011;68384;55.750;48.746;2023-04-25T06:17:32;4.65;;;2.53;;
78985;SDS011;68384;55.750;48.746;2023-04-25T06:18:35;7.53;;;2.63;;
78985;SDS011;68384;55.750;48.746;2023-04-25T06:19:39;8.10;;;2.70;;
78985;SDS011;68384;55.750;48.746;2023-04-25T06:20:42;7.35;;;2.80;;
78985;SDS011;68384;55.750;48.746;2023-04-25T06:21:46;6.22;;;2.75;;
78985;SDS011;68384;55.750;48.746;2023-04-25T06:22:51;7.07;;;2.88;;
78985;SDS011;68384;55.750;48.746;2023-04-25T06:23:54;7.68;;;2.70;;
78985;SDS011;68384;55.750;48.746;2023-04-25T06:26:02;9.07;;;2.97;;
78985;SDS011;68384;55.750;48.746;2023-04-25T06:27:05;7.13;;;3.40;;
78985;SDS011;68384;55.750;48.746;2023-04-25T06:28:09;5.22;;;2.90;;
78985;SDS011;68384;55.750;48.746;2023-04-25T06:29:12;5.68;;;2.83;;
78985;SDS011;68384;55.750;48.746;2023-04-25T06:31:20;5.35;;;2.75;;
78985;SDS011;68384;55.750;48.746;2023-04-25T06:32:23;8.27;;;2.72;;
78985;SDS011;68384;55.750;48.746;2023-04-25T06:33:29;6.35;;;2.83;;
78985;SDS011;68384;55.750;48.746;2023-04-25T06:34:33;4.25;;;2.90;;
78985;SDS011;68384;55.750;48.746;2023-04-25T06:35:35;7.18;;;2.72;;
78985;SDS011;68384;55.750;48.746;2023-04-25T06:36:39;5.80;;;3.05;;
78985;SDS011;68384;55.750;48.746;2023-04-25T06:37:43;4.63;;;2.60;;
78985;SDS011;68384;55.750;48.746;2023-04-25T06:38:48;11.77;;;3.03;;
78985;SDS011;68384;55.750;48.746;2023-04-25T06:39:51;6.15;;;2.92;;
78985;SDS011;68384;55.750;48.746;2023-04-25T06:41:56;8.07;;;2.90;;
78985;SDS011;68384;55.750;48.746;2023-04-25T06:43:00;6.78;;;2.80;;
78985;SDS011;68384;55.750;48.746;2023-04-25T06:44:03;9.98;;;2.97;;
78985;SDS011;68384;55.750;48.746;2023-04-25T06:45:07;8.80;;;3.42;;
78985;SDS011;68384;55.750;48.746;2023-04-25T06:46:10;6.93;;;2.72;;
78985;SDS011;68384;55.750;48.746;2023-04-25T06:47:14;7.90;;;2.72;;
78985;SDS011;68384;55.750;48.746;2023-04-25T06:48:16;8.75;;;2.90;;
78985;SDS011;68384;55.750;48.746;2023-04-25T06:49:20;6.00;;;2.88;;
78985;SDS011;68384;55.750;48.746;2023-04-25T06:50:24;7.03;;;2.80;;
78985;SDS011;68384;55.750;48.746;2023-04-25T06:51:26;8.90;;;3.50;;
78985;SDS011;68384;55.750;48.746;2023-04-25T06:52:32;4.65;;;2.90;;
78985;SDS011;68384;55.750;48.746;2023-04-25T06:53:35;5.22;;;3.20;;
78985;SDS011;68384;55.750;48.746;2023-04-25T06:54:40;11.02;;;3.13;;
78985;SDS011;68384;55.750;48.746;2023-04-25T06:55:44;6.45;;;2.90;;
78985;SDS011;68384;55.750;48.746;2023-04-25T06:56:46;4.63;;;2.90;;
78985;SDS011;68384;55.750;48.746;2023-04-25T06:57:50;5.05;;;2.75;;
78985;SDS011;68384;55.750;48.746;2023-04-25T06:58:53;9.40;;;3.17;;
78985;SDS011;68384;55.750;48.746;2023-04-25T06:59:56;11.93;;;3.40;;
78985;SDS011;68384;55.750;48.746;2023-04-25T07:01:02;8.75;;;3.03;;